sensor_id;sensor_type;location;lat;lon;timestamp;P1;durP1;ratioP1;P2;durP2;ratioP2
2213;SDS011;1113;42.018;23.986;2023-04-03T00:01:10;7.45;;;5.63;;
2213;SDS011;1113;42.018;23.986;2023-04-03T00:03:37;8.48;;;5.90;;
2213;SDS011;1113;42.018;23.986;2023-04-03T00:06:04;12.15;;;5.90;;
2213;SDS011;1113;42.018;23.986;2023-04-03T00:08:31;9.57;;;5.78;;
2213;SDS011;1113;42.018;23.986;2023-04-03T00:10:58;7.82;;;4.95;;
2213;SDS011;1113;42.018;23.986;2023-04-03T00:13:26;7.80;;;5.00;;
2213;SDS011;1113;42.018;23.986;2023-04-03T00:15:53;5.68;;;4.30;;
2213;SDS011;1113;42.018;23.986;2023-04-03T00:18:19;7.60;;;4.85;;
2213;SDS011;1113;42.018;23.986;2023-04-03T00:20:46;8.40;;;5.35;;
2213;SDS011;1113;42.018;23.986;2023-04-03T00:23:13;12.63;;;5.88;;
2213;SDS011;1113;42.018;23.986;2023-04-03T00:25:40;7.43;;;4.75;;
2213;SDS011;1113;42.018;23.986;2023-04-03T00:28:06;7.45;;;5.10;;
2213;SDS011;1113;42.018;23.986;2023-04-03T00:30:34;7.78;;;5.30;;
2213;SDS011;1113;42.018;23.986;2023-04-03T00:33:01;16.88;;;10.10;;
2213;SDS011;1113;42.018;23.986;2023-04-03T00:35:28;17.60;;;12.63;;
2213;SDS011;1113;42.018;23.986;2023-04-03T00:37:54;18.15;;;12.55;;
2213;SDS011;1113;42.018;23.986;2023-04-03T00:40:23;16.58;;;9.57;;
2213;SDS011;1113;42.018;23.986;2023-04-03T00:42:51;16.17;;;10.95;;
2213;SDS011;1113;42.018;23.986;2023-04-03T00:45:29;13.65;;;9.05;;
2213;SDS011;1113;42.018;23.986;2023-04-03T00:47:57;10.85;;;7.15;;
2213;SDS011;1113;42.018;23.986;2023-04-03T00:50:25;10.85;;;7.43;;
2213;SDS011;1113;42.018;23.986;2023-04-03T00:52:52;12.82;;;9.05;;
2213;SDS011;1113;42.018;23.986;2023-04-03T00:55:19;10.38;;;7.53;;
2213;SDS011;1113;42.018;23.986;2023-04-03T00:57:46;10.35;;;7.80;;
2213;SDS011;1113;42.018;23.986;2023-04-03T01:00:14;11.25;;;6.40;;
2213;SDS011;1113;42.018;23.986;2023-04-03T01:02:42;20.83;;;15.32;;
2213;SDS011;1113;42.018;23.986;2023-04-03T01:05:10;15.40;;;9.95;;
2213;SDS011;1113;42.018;23.986;2023-04-03T01:07:37;15.82;;;8.80;;
2213;SDS011;1113;42.018;23.986;2023-04-03T01:10:04;13.05;;;7.40;;
2213;SDS011;1113;42.018;23.986;2023-04-03T01:12:32;10.18;;;6.40;;
2213;SDS011;1113;42.018;23.986;2023-04-03T01:14:59;10.32;;;6.20;;
2213;SDS011;1113;42.018;23.986;2023-04-03T01:17:27;9.13;;;6.32;;
2213;SDS011;1113;42.018;23.986;2023-04-03T01:19:57;8.95;;;6.65;;
2213;SDS011;1113;42.018;23.986;2023-04-03T01:22:32;8.25;;;6.15;;
2213;SDS011;1113;42.018;23.986;2023-04-03T01:25:03;11.18;;;7.10;;
2213;SDS011;1113;42.018;23.986;2023-04-03T01:27:30;9.38;;;6.55;;
2213;SDS011;1113;42.018;23.986;2023-04-03T01:29:56;8.45;;;5.88;;
2213;SDS011;1113;42.018;23.986;2023-04-03T01:32:25;9.20;;;5.80;;
2213;SDS011;1113;42.018;23.986;2023-04-03T01:34:51;11.15;;;6.40;;
2213;SDS011;1113;42.018;23.986;2023-04-03T01:37:18;8.68;;;5.50;;
2213;SDS011;1113;42.018;23.986;2023-04-03T01:39:45;6.68;;;4.63;;
2213;SDS011;1113;42.018;23.986;2023-04-03T01:42:11;7.43;;;5.30;;
2213;SDS011;1113;42.018;23.986;2023-04-03T01:44:38;9.90;;;5.28;;
2213;SDS011;1113;42.018;23.986;2023-04-03T01:47:05;7.93;;;5.32;;
2213;SDS011;1113;42.018;23.986;2023-04-03T01:49:33;8.85;;;5.68;;
2213;SDS011;1113;42.018;23.986;2023-04-03T01:52:00;8.70;;;6.20;;
2213;SDS011;1113;42.018;23.986;2023-04-03T01:54:26;10.77;;;7.22;;
2213;SDS011;1113;42.018;23.986;2023-04-03T01:56:53;7.82;;;5.10;;
2213;SDS011;1113;42.018;23.986;2023-04-03T01:59:19;10.55;;;4.68;;
2213;SDS011;1113;42.018;23.986;2023-04-03T02:01:46;7.90;;;5.45;;
2213;SDS011;1113;42.018;23.986;2023-04-03T02:04:12;7.38;;;5.20;;
2213;SDS011;1113;42.018;23.986;2023-04-03T02:06:40;8.40;;;5.75;;
2213;SDS011;1113;42.018;23.986;2023-04-03T02:09:07;5.53;;;4.20;;
2213;SDS011;1113;42.018;23.986;2023-04-03T02:11:33;9.18;;;6.20;;
2213;SDS011;1113;42.018;23.986;2023-04-03T02:14:00;12.80;;;8.95;;
2213;SDS011;1113;42.018;23.986;2023-04-03T02:16:26;10.70;;;8.13;;
2213;SDS011;1113;42.018;23.986;2023-04-03T02:18:53;12.65;;;9.90;;
2213;SDS011;1113;42.018;23.986;2023-04-03T02:21:20;11.55;;;8.88;;
2213;SDS011;1113;42.018;23.986;2023-04-03T02:23:48;11.05;;;8.10;;
2213;SDS011;1113;42.018;23.986;2023-04-03T02:26:15;12.52;;;10.27;;
2213;SDS011;1113;42.018;23.986;2023-04-03T02:28:42;14.05;;;9.00;;
2213;SDS011;1113;42.018;23.986;2023-04-03T02:31:09;8.85;;;7.15;;
2213;SDS011;1113;42.018;23.986;2023-04-03T02:33:36;12.95;;;8.45;;
2213;SDS011;1113;42.018;23.986;2023-04-03T02:36:03;9.75;;;7.55;;
2213;SDS011;1113;42.018;23.986;2023-04-03T02:38:29;11.02;;;7.80;;
2213;SDS011;1113;42.018;23.986;2023-04-03T02:41:00;11.38;;;7.90;;
2213;SDS011;1113;42.018;23.986;2023-04-03T02:43:27;11.82;;;9.07;;
2213;SDS011;1113;42.018;23.986;2023-04-03T02:45:53;11.93;;;9.63;;
2213;SDS011;1113;42.018;23.986;2023-04-03T02:48:20;21.52;;;17.52;;
2213;SDS011;1113;42.018;23.986;2023-04-03T02:50:46;17.88;;;14.50;;
2213;SDS011;1113;42.018;23.986;2023-04-03T02:53:13;14.85;;;9.73;;
2213;SDS011;1113;42.018;23.986;2023-04-03T02:55:40;10.82;;;7.50;;
2213;SDS011;1113;42.018;23.986;2023-04-03T02:58:08;8.23;;;6.47;;
2213;SDS011;1113;42.018;23.986;2023-04-03T03:00:34;9.40;;;6.60;;
2213;SDS011;1113;42.018;23.986;2023-04-03T03:03:01;12.20;;;9.40;;
2213;SDS011;1113;42.018;23.986;2023-04-03T03:05:27;16.38;;;10.55;;
2213;SDS011;1113;42.018;23.986;2023-04-03T03:07:54;19.02;;;12.80;;
2213;SDS011;1113;42.018;23.986;2023-04-03T03:10:21;15.95;;;10.48;;
2213;SDS011;1113;42.018;23.986;2023-04-03T03:12:47;11.63;;;9.15;;
2213;SDS011;1113;42.018;23.986;2023-04-03T03:15:15;13.98;;;9.65;;
2213;SDS011;1113;42.018;23.986;2023-04-03T03:17:42;9.35;;;7.13;;
2213;SDS011;1113;42.018;23.986;2023-04-03T03:20:09;11.32;;;9.60;;
2213;SDS011;1113;42.018;23.986;2023-04-03T03:22:36;15.18;;;11.50;;
2213;SDS011;1113;42.018;23.986;2023-04-03T03:25:03;14.23;;;12.45;;
2213;SDS011;1113;42.018;23.986;2023-04-03T03:27:30;18.13;;;14.43;;
2213;SDS011;1113;42.018;23.986;2023-04-03T03:29:56;23.65;;;19.27;;
2213;SDS011;1113;42.018;23.986;2023-04-03T03:32:24;24.98;;;22.25;;
2213;SDS011;1113;42.018;23.986;2023-04-03T03:34:50;14.90;;;12.52;;
2213;SDS011;1113;42.018;23.986;2023-04-03T03:37:17;10.18;;;8.90;;
2213;SDS011;1113;42.018;23.986;2023-04-03T03:39:43;12.15;;;9.65;;
2213;SDS011;1113;42.018;23.986;2023-04-03T03:42:10;13.30;;;10.05;;
2213;SDS011;1113;42.018;23.986;2023-04-03T03:44:36;13.05;;;9.35;;
2213;SDS011;1113;42.018;23.986;2023-04-03T03:47:03;9.18;;;7.50;;
2213;SDS011;1113;42.018;23.986;2023-04-03T03:49:32;8.70;;;7.60;;
2213;SDS011;1113;42.018;23.986;2023-04-03T03:51:59;9.80;;;7.78;;
2213;SDS011;1113;42.018;23.986;2023-04-03T03:54:25;13.18;;;9.90;;
2213;SDS011;1113;42.018;23.986;2023-04-03T03:56:52;16.75;;;12.93;;
2213;SDS011;1113;42.018;23.986;2023-04-03T03:59:18;12.60;;;9.18;;
2213;SDS011;1113;42.018;23.986;2023-04-03T04:01:45;25.15;;;19.52;;
2213;SDS011;1113;42.018;23.986;2023-04-03T04:04:11;27.05;;;20.58;;
2213;SDS011;1113;42.018;23.986;2023-04-03T04:06:39;25.52;;;18.38;;
2213;SDS011;1113;42.018;23.986;2023-04-03T04:09:06;30.50;;;18.58;;
2213;SDS011;1113;42.018;23.986;2023-04-03T04:11:32;49.35;;;38.70;;
2213;SDS011;1113;42.018;23.986;2023-04-03T04:13:59;39.05;;;28.90;;
2213;SDS011;1113;42.018;23.986;2023-04-03T04:16:26;26.98;;;18.20;;
2213;SDS011;1113;42.018;23.986;2023-04-03T04:18:52;17.67;;;11.57;;
2213;SDS011;1113;42.018;23.986;2023-04-03T04:21:19;14.05;;;10.43;;
2213;SDS011;1113;42.018;23.986;2023-04-03T04:23:46;15.20;;;11.98;;
2213;SDS011;1113;42.018;23.986;2023-04-03T04:26:13;22.40;;;17.90;;
2213;SDS011;1113;42.018;23.986;2023-04-03T04:28:39;26.55;;;18.23;;
2213;SDS011;1113;42.018;23.986;2023-04-03T04:31:06;17.58;;;12.43;;
2213;SDS011;1113;42.018;23.986;2023-04-03T04:33:32;12.18;;;9.25;;
2213;SDS011;1113;42.018;23.986;2023-04-03T04:35:59;11.32;;;8.70;;
2213;SDS011;1113;42.018;23.986;2023-04-03T04:38:26;13.77;;;9.95;;
2213;SDS011;1113;42.018;23.986;2023-04-03T04:40:54;15.50;;;10.77;;
2213;SDS011;1113;42.018;23.986;2023-04-03T04:43:20;20.20;;;14.40;;
2213;SDS011;1113;42.018;23.986;2023-04-03T04:45:47;27.90;;;17.65;;
2213;SDS011;1113;42.018;23.986;2023-04-03T04:48:13;27.67;;;19.30;;
2213;SDS011;1113;42.018;23.986;2023-04-03T04:50:40;31.67;;;20.42;;
2213;SDS011;1113;42.018;23.986;2023-04-03T04:53:06;40.28;;;28.45;;
2213;SDS011;1113;42.018;23.986;2023-04-03T04:55:33;35.67;;;25.95;;
2213;SDS011;1113;42.018;23.986;2023-04-03T04:58:01;33.65;;;23.58;;
2213;SDS011;1113;42.018;23.986;2023-04-03T05:00:28;35.50;;;24.02;;
2213;SDS011;1113;42.018;23.986;2023-04-03T05:02:54;39.70;;;28.40;;
2213;SDS011;1113;42.018;23.986;2023-04-03T05:05:21;34.92;;;25.45;;
2213;SDS011;1113;42.018;23.986;2023-04-03T05:07:47;37.67;;;26.48;;
2213;SDS011;1113;42.018;23.986;2023-04-03T05:10:14;32.38;;;26.30;;
2213;SDS011;1113;42.018;23.986;2023-04-03T05:12:40;33.05;;;24.17;;
2213;SDS011;1113;42.018;23.986;2023-04-03T05:15:09;31.48;;;20.52;;
2213;SDS011;1113;42.018;23.986;2023-04-03T05:17:35;29.80;;;20.38;;
2213;SDS011;1113;42.018;23.986;2023-04-03T05:20:02;24.10;;;17.53;;
2213;SDS011;1113;42.018;23.986;2023-04-03T05:22:30;23.27;;;18.40;;
2213;SDS011;1113;42.018;23.986;2023-04-03T05:24:56;24.00;;;17.25;;
2213;SDS011;1113;42.018;23.986;2023-04-03T05:27:26;25.63;;;19.27;;
2213;SDS011;1113;42.018;23.986;2023-04-03T05:29:54;29.15;;;19.95;;
2213;SDS011;1113;42.018;23.986;2023-04-03T05:32:22;49.00;;;32.78;;
2213;SDS011;1113;42.018;23.986;2023-04-03T05:34:48;47.03;;;32.47;;
2213;SDS011;1113;42.018;23.986;2023-04-03T05:37:15;52.58;;;33.40;;
2213;SDS011;1113;42.018;23.986;2023-04-03T05:39:42;45.13;;;31.65;;
2213;SDS011;1113;42.018;23.986;2023-04-03T05:42:08;47.35;;;34.20;;
2213;SDS011;1113;42.018;23.986;2023-04-03T05:44:36;43.33;;;30.05;;
2213;SDS011;1113;42.018;23.986;2023-04-03T05:47:02;40.08;;;27.85;;
2213;SDS011;1113;42.018;23.986;2023-04-03T05:49:30;37.25;;;28.65;;
2213;SDS011;1113;42.018;23.986;2023-04-03T05:51:57;31.30;;;23.95;;
2213;SDS011;1113;42.018;23.986;2023-04-03T05:54:25;33.13;;;27.75;;
2213;SDS011;1113;42.018;23.986;2023-04-03T05:56:52;95.90;;;68.40;;
2213;SDS011;1113;42.018;23.986;2023-04-03T05:59:19;82.47;;;57.97;;
2213;SDS011;1113;42.018;23.986;2023-04-03T06:01:46;55.20;;;41.40;;
2213;SDS011;1113;42.018;23.986;2023-04-03T06:04:12;39.33;;;30.40;;
2213;SDS011;1113;42.018;23.986;2023-04-03T06:06:44;44.80;;;33.45;;
2213;SDS011;1113;42.018;23.986;2023-04-03T06:09:11;43.35;;;31.38;;
2213;SDS011;1113;42.018;23.986;2023-04-03T06:11:38;44.03;;;33.33;;
2213;SDS011;1113;42.018;23.986;2023-04-03T06:14:05;47.88;;;36.63;;
2213;SDS011;1113;42.018;23.986;2023-04-03T06:16:32;54.08;;;36.22;;
2213;SDS011;1113;42.018;23.986;2023-04-03T06:18:58;42.78;;;33.10;;
2213;SDS011;1113;42.018;23.986;2023-04-03T06:21:25;41.25;;;30.20;;
2213;SDS011;1113;42.018;23.986;2023-04-03T06:23:53;40.33;;;25.70;;
2213;SDS011;1113;42.018;23.986;2023-04-03T06:26:23;36.28;;;24.30;;
2213;SDS011;1113;42.018;23.986;2023-04-03T06:28:50;42.47;;;26.92;;
2213;SDS011;1113;42.018;23.986;2023-04-03T06:31:16;36.50;;;26.30;;
2213;SDS011;1113;42.018;23.986;2023-04-03T06:33:43;35.75;;;28.15;;
2213;SDS011;1113;42.018;23.986;2023-04-03T06:36:09;34.33;;;26.83;;
2213;SDS011;1113;42.018;23.986;2023-04-03T06:38:36;42.38;;;29.95;;
2213;SDS011;1113;42.018;23.986;2023-04-03T06:41:04;43.38;;;30.88;;
2213;SDS011;1113;42.018;23.986;2023-04-03T06:43:31;45.80;;;32.90;;
2213;SDS011;1113;42.018;23.986;2023-04-03T06:45:57;48.75;;;33.90;;
2213;SDS011;1113;42.018;23.986;2023-04-03T06:48:24;54.22;;;40.03;;
2213;SDS011;1113;42.018;23.986;2023-04-03T06:50:50;69.80;;;51.03;;
2213;SDS011;1113;42.018;23.986;2023-04-03T06:53:17;57.33;;;44.85;;
2213;SDS011;1113;42.018;23.986;2023-04-03T06:55:43;56.38;;;37.80;;
2213;SDS011;1113;42.018;23.986;2023-04-03T06:58:11;43.22;;;32.65;;
2213;SDS011;1113;42.018;23.986;2023-04-03T07:00:38;41.78;;;28.13;;
2213;SDS011;1113;42.018;23.986;2023-04-03T07:03:05;42.70;;;28.67;;
2213;SDS011;1113;42.018;23.986;2023-04-03T07:05:31;45.90;;;31.15;;
2213;SDS011;1113;42.018;23.986;2023-04-03T07:07:58;43.15;;;30.45;;
2213;SDS011;1113;42.018;23.986;2023-04-03T07:10:24;37.47;;;26.35;;
2213;SDS011;1113;42.018;23.986;2023-04-03T07:12:51;35.92;;;23.80;;
2213;SDS011;1113;42.018;23.986;2023-04-03T07:15:19;35.33;;;21.90;;
2213;SDS011;1113;42.018;23.986;2023-04-03T07:17:46;35.15;;;23.80;;
2213;SDS011;1113;42.018;23.986;2023-04-03T07:20:13;29.17;;;21.80;;
2213;SDS011;1113;42.018;23.986;2023-04-03T07:22:40;36.00;;;25.08;;
2213;SDS011;1113;42.018;23.986;2023-04-03T07:25:07;33.83;;;26.00;;
2213;SDS011;1113;42.018;23.986;2023-04-03T07:27:33;38.28;;;28.10;;
2213;SDS011;1113;42.018;23.986;2023-04-03T07:30:00;42.45;;;31.70;;
2213;SDS011;1113;42.018;23.986;2023-04-03T07:32:29;41.22;;;33.17;;
2213;SDS011;1113;42.018;23.986;2023-04-03T07:34:56;53.67;;;38.08;;
2213;SDS011;1113;42.018;23.986;2023-04-03T07:37:22;51.58;;;38.38;;
2213;SDS011;1113;42.018;23.986;2023-04-03T07:39:49;41.30;;;31.38;;
2213;SDS011;1113;42.018;23.986;2023-04-03T07:42:16;39.25;;;31.67;;
2213;SDS011;1113;42.018;23.986;2023-04-03T07:44:42;49.25;;;36.38;;
2213;SDS011;1113;42.018;23.986;2023-04-03T07:47:09;51.25;;;36.17;;
2213;SDS011;1113;42.018;23.986;2023-04-03T07:49:37;47.97;;;34.50;;
2213;SDS011;1113;42.018;23.986;2023-04-03T07:52:05;51.50;;;33.28;;
2213;SDS011;1113;42.018;23.986;2023-04-03T07:54:35;50.85;;;32.65;;
2213;SDS011;1113;42.018;23.986;2023-04-03T07:57:04;42.90;;;30.65;;
2213;SDS011;1113;42.018;23.986;2023-04-03T07:59:31;46.38;;;31.30;;
2213;SDS011;1113;42.018;23.986;2023-04-03T08:01:58;48.10;;;32.22;;
2213;SDS011;1113;42.018;23.986;2023-04-03T08:04:24;48.13;;;32.20;;
2213;SDS011;1113;42.018;23.986;2023-04-03T08:06:53;55.37;;;37.53;;
2213;SDS011;1113;42.018;23.986;2023-04-03T08:09:19;38.33;;;28.00;;
2213;SDS011;1113;42.018;23.986;2023-04-03T08:11:46;34.03;;;22.90;;
2213;SDS011;1113;42.018;23.986;2023-04-03T08:14:13;26.70;;;19.90;;
2213;SDS011;1113;42.018;23.986;2023-04-03T08:16:43;31.57;;;20.50;;
2213;SDS011;1113;42.018;23.986;2023-04-03T08:19:10;32.73;;;21.47;;
2213;SDS011;1113;42.018;23.986;2023-04-03T08:21:39;42.77;;;29.47;;
2213;SDS011;1113;42.018;23.986;2023-04-03T08:24:07;39.07;;;26.93;;
2213;SDS011;1113;42.018;23.986;2023-04-03T08:26:35;19.47;;;13.00;;
2213;SDS011;1113;42.018;23.986;2023-04-03T08:29:01;23.93;;;16.30;;
2213;SDS011;1113;42.018;23.986;2023-04-03T08:31:28;26.50;;;15.83;;
2213;SDS011;1113;42.018;23.986;2023-04-03T08:33:56;32.73;;;20.80;;
2213;SDS011;1113;42.018;23.986;2023-04-03T08:36:23;44.60;;;25.50;;
2213;SDS011;1113;42.018;23.986;2023-04-03T08:38:51;33.73;;;21.93;;
2213;SDS011;1113;42.018;23.986;2023-04-03T08:41:24;30.93;;;16.93;;
2213;SDS011;1113;42.018;23.986;2023-04-03T08:44:03;27.60;;;15.57;;
2213;SDS011;1113;42.018;23.986;2023-04-03T08:46:37;34.13;;;19.40;;
2213;SDS011;1113;42.018;23.986;2023-04-03T08:49:07;23.67;;;14.63;;
2213;SDS011;1113;42.018;23.986;2023-04-03T08:51:36;16.07;;;10.87;;
2213;SDS011;1113;42.018;23.986;2023-04-03T08:54:06;17.17;;;10.90;;
2213;SDS011;1113;42.018;23.986;2023-04-03T08:56:35;15.23;;;9.40;;
2213;SDS011;1113;42.018;23.986;2023-04-03T08:59:06;14.67;;;8.77;;
2213;SDS011;1113;42.018;23.986;2023-04-03T09:01:37;9.03;;;7.27;;
2213;SDS011;1113;42.018;23.986;2023-04-03T09:04:09;9.83;;;6.40;;
2213;SDS011;1113;42.018;23.986;2023-04-03T09:06:37;11.60;;;8.10;;
2213;SDS011;1113;42.018;23.986;2023-04-03T09:09:07;15.90;;;10.17;;
2213;SDS011;1113;42.018;23.986;2023-04-03T09:11:42;20.33;;;13.83;;
2213;SDS011;1113;42.018;23.986;2023-04-03T09:14:13;12.17;;;10.17;;
2213;SDS011;1113;42.018;23.986;2023-04-03T09:16:43;14.40;;;11.87;;
2213;SDS011;1113;42.018;23.986;2023-04-03T09:19:14;17.33;;;13.07;;
2213;SDS011;1113;42.018;23.986;2023-04-03T09:21:42;17.30;;;12.87;;
2213;SDS011;1113;42.018;23.986;2023-04-03T09:24:09;17.63;;;12.23;;
2213;SDS011;1113;42.018;23.986;2023-04-03T09:26:36;18.40;;;10.73;;
2213;SDS011;1113;42.018;23.986;2023-04-03T09:29:07;14.17;;;11.10;;
2213;SDS011;1113;42.018;23.986;2023-04-03T09:31:36;17.57;;;11.63;;
2213;SDS011;1113;42.018;23.986;2023-04-03T09:34:04;15.13;;;10.83;;
2213;SDS011;1113;42.018;23.986;2023-04-03T09:36:42;22.90;;;14.63;;
2213;SDS011;1113;42.018;23.986;2023-04-03T09:39:10;23.90;;;14.40;;
2213;SDS011;1113;42.018;23.986;2023-04-03T09:41:37;18.23;;;11.50;;
2213;SDS011;1113;42.018;23.986;2023-04-03T09:44:17;12.37;;;8.80;;
2213;SDS011;1113;42.018;23.986;2023-04-03T09:46:47;9.27;;;7.30;;
2213;SDS011;1113;42.018;23.986;2023-04-03T09:49:14;9.87;;;7.40;;
2213;SDS011;1113;42.018;23.986;2023-04-03T09:51:41;8.50;;;6.30;;
2213;SDS011;1113;42.018;23.986;2023-04-03T09:54:24;10.50;;;8.33;;
2213;SDS011;1113;42.018;23.986;2023-04-03T09:56:52;8.93;;;7.97;;
2213;SDS011;1113;42.018;23.986;2023-04-03T09:59:20;12.40;;;9.40;;
2213;SDS011;1113;42.018;23.986;2023-04-03T10:01:58;14.80;;;10.57;;
2213;SDS011;1113;42.018;23.986;2023-04-03T10:04:25;13.67;;;10.27;;
2213;SDS011;1113;42.018;23.986;2023-04-03T10:06:52;17.90;;;8.70;;
2213;SDS011;1113;42.018;23.986;2023-04-03T10:09:20;14.40;;;10.80;;
2213;SDS011;1113;42.018;23.986;2023-04-03T10:12:00;15.60;;;11.50;;
2213;SDS011;1113;42.018;23.986;2023-04-03T10:14:27;13.23;;;10.07;;
2213;SDS011;1113;42.018;23.986;2023-04-03T10:16:56;14.07;;;10.30;;
2213;SDS011;1113;42.018;23.986;2023-04-03T10:19:31;21.83;;;15.03;;
2213;SDS011;1113;42.018;23.986;2023-04-03T10:21:59;19.57;;;10.33;;
2213;SDS011;1113;42.018;23.986;2023-04-03T10:24:28;14.43;;;11.10;;
2213;SDS011;1113;42.018;23.986;2023-04-03T10:26:58;17.20;;;12.13;;
2213;SDS011;1113;42.018;23.986;2023-04-03T10:29:34;11.90;;;9.73;;
2213;SDS011;1113;42.018;23.986;2023-04-03T10:32:03;9.73;;;8.53;;
2213;SDS011;1113;42.018;23.986;2023-04-03T10:34:33;10.83;;;8.73;;
2213;SDS011;1113;42.018;23.986;2023-04-03T10:37:04;7.27;;;6.27;;
2213;SDS011;1113;42.018;23.986;2023-04-03T10:39:33;8.00;;;6.20;;
2213;SDS011;1113;42.018;23.986;2023-04-03T10:42:03;10.60;;;6.60;;
2213;SDS011;1113;42.018;23.986;2023-04-03T10:44:36;11.33;;;8.60;;
2213;SDS011;1113;42.018;23.986;2023-04-03T10:47:05;9.37;;;5.90;;
2213;SDS011;1113;42.018;23.986;2023-04-03T10:49:38;8.73;;;7.20;;
2213;SDS011;1113;42.018;23.986;2023-04-03T10:52:12;8.90;;;7.93;;
2213;SDS011;1113;42.018;23.986;2023-04-03T10:54:41;8.23;;;7.33;;
2213;SDS011;1113;42.018;23.986;2023-04-03T10:57:08;9.37;;;8.10;;
2213;SDS011;1113;42.018;23.986;2023-04-03T10:59:36;9.80;;;7.07;;
2213;SDS011;1113;42.018;23.986;2023-04-03T11:02:04;8.53;;;7.00;;
2213;SDS011;1113;42.018;23.986;2023-04-03T11:04:34;12.60;;;9.87;;
2213;SDS011;1113;42.018;23.986;2023-04-03T11:07:03;9.27;;;7.00;;
2213;SDS011;1113;42.018;23.986;2023-04-03T11:09:34;10.47;;;8.60;;
2213;SDS011;1113;42.018;23.986;2023-04-03T11:12:04;8.33;;;6.60;;
2213;SDS011;1113;42.018;23.986;2023-04-03T11:14:31;6.83;;;6.13;;
2213;SDS011;1113;42.018;23.986;2023-04-03T11:17:01;11.03;;;8.23;;
2213;SDS011;1113;42.018;23.986;2023-04-03T11:19:33;10.20;;;7.70;;
2213;SDS011;1113;42.018;23.986;2023-04-03T11:22:01;10.50;;;8.40;;
2213;SDS011;1113;42.018;23.986;2023-04-03T11:24:32;9.70;;;8.00;;
2213;SDS011;1113;42.018;23.986;2023-04-03T11:27:00;8.80;;;7.07;;
2213;SDS011;1113;42.018;23.986;2023-04-03T11:29:30;12.20;;;8.80;;
2213;SDS011;1113;42.018;23.986;2023-04-03T11:32:02;11.57;;;9.27;;
2213;SDS011;1113;42.018;23.986;2023-04-03T11:34:33;10.87;;;8.50;;
2213;SDS011;1113;42.018;23.986;2023-04-03T11:37:01;11.17;;;9.87;;
2213;SDS011;1113;42.018;23.986;2023-04-03T11:39:32;12.20;;;10.03;;
2213;SDS011;1113;42.018;23.986;2023-04-03T11:42:13;14.37;;;10.47;;
2213;SDS011;1113;42.018;23.986;2023-04-03T11:44:39;14.57;;;10.80;;
2213;SDS011;1113;42.018;23.986;2023-04-03T11:47:06;14.83;;;11.00;;
2213;SDS011;1113;42.018;23.986;2023-04-03T11:55:02;11.10;;;9.20;;
2213;SDS011;1113;42.018;23.986;2023-04-03T11:57:44;17.30;;;10.33;;
2213;SDS011;1113;42.018;23.986;2023-04-03T12:02:57;13.20;;;10.70;;
2213;SDS011;1113;42.018;23.986;2023-04-03T12:05:25;13.13;;;10.13;;
2213;SDS011;1113;42.018;23.986;2023-04-03T12:10:35;13.77;;;9.43;;
2213;SDS011;1113;42.018;23.986;2023-04-03T12:13:12;12.00;;;10.13;;
2213;SDS011;1113;42.018;23.986;2023-04-03T12:15:49;15.10;;;11.27;;
2213;SDS011;1113;42.018;23.986;2023-04-03T12:21:13;14.87;;;11.80;;
2213;SDS011;1113;42.018;23.986;2023-04-03T12:24:00;15.70;;;13.20;;
2213;SDS011;1113;42.018;23.986;2023-04-03T12:26:30;15.07;;;10.93;;
2213;SDS011;1113;42.018;23.986;2023-04-03T12:28:57;12.30;;;9.80;;
2213;SDS011;1113;42.018;23.986;2023-04-03T12:31:25;14.23;;;10.37;;
2213;SDS011;1113;42.018;23.986;2023-04-03T12:34:11;19.57;;;13.87;;
2213;SDS011;1113;42.018;23.986;2023-04-03T12:36:44;15.10;;;12.40;;
2213;SDS011;1113;42.018;23.986;2023-04-03T12:39:17;18.60;;;14.20;;
2213;SDS011;1113;42.018;23.986;2023-04-03T12:41:50;21.70;;;15.67;;
2213;SDS011;1113;42.018;23.986;2023-04-03T12:44:22;17.63;;;13.90;;
2213;SDS011;1113;42.018;23.986;2023-04-03T12:46:51;23.80;;;17.17;;
2213;SDS011;1113;42.018;23.986;2023-04-03T12:49:35;15.60;;;13.70;;
2213;SDS011;1113;42.018;23.986;2023-04-03T12:52:04;14.93;;;13.33;;
2213;SDS011;1113;42.018;23.986;2023-04-03T12:54:32;15.93;;;13.77;;
2213;SDS011;1113;42.018;23.986;2023-04-03T12:57:11;19.60;;;16.50;;
2213;SDS011;1113;42.018;23.986;2023-04-03T12:59:38;18.33;;;14.27;;
2213;SDS011;1113;42.018;23.986;2023-04-03T13:02:13;18.77;;;15.37;;
2213;SDS011;1113;42.018;23.986;2023-04-03T13:04:42;21.30;;;17.10;;
2213;SDS011;1113;42.018;23.986;2023-04-03T13:07:18;19.90;;;16.87;;
2213;SDS011;1113;42.018;23.986;2023-04-03T13:09:47;15.30;;;13.73;;
2213;SDS011;1113;42.018;23.986;2023-04-03T13:12:22;15.07;;;11.70;;
2213;SDS011;1113;42.018;23.986;2023-04-03T13:14:52;13.40;;;9.50;;
2213;SDS011;1113;42.018;23.986;2023-04-03T13:17:19;13.03;;;10.60;;
2213;SDS011;1113;42.018;23.986;2023-04-03T13:19:46;12.40;;;10.50;;
2213;SDS011;1113;42.018;23.986;2023-04-03T13:22:18;13.33;;;11.33;;
2213;SDS011;1113;42.018;23.986;2023-04-03T13:24:46;13.50;;;12.10;;
2213;SDS011;1113;42.018;23.986;2023-04-03T13:27:13;16.83;;;12.97;;
2213;SDS011;1113;42.018;23.986;2023-04-03T13:29:41;18.40;;;14.37;;
2213;SDS011;1113;42.018;23.986;2023-04-03T13:32:14;14.33;;;12.83;;
2213;SDS011;1113;42.018;23.986;2023-04-03T13:34:44;16.23;;;14.17;;
2213;SDS011;1113;42.018;23.986;2023-04-03T13:37:18;21.00;;;18.57;;
2213;SDS011;1113;42.018;23.986;2023-04-03T13:39:45;20.47;;;16.30;;
2213;SDS011;1113;42.018;23.986;2023-04-03T13:42:16;26.20;;;14.60;;
2213;SDS011;1113;42.018;23.986;2023-04-03T13:44:46;18.93;;;15.40;;
2213;SDS011;1113;42.018;23.986;2023-04-03T13:47:18;23.33;;;16.77;;
2213;SDS011;1113;42.018;23.986;2023-04-03T13:49:46;19.70;;;15.53;;
2213;SDS011;1113;42.018;23.986;2023-04-03T13:52:26;20.17;;;14.90;;
2213;SDS011;1113;42.018;23.986;2023-04-03T13:54:54;17.07;;;13.67;;
2213;SDS011;1113;42.018;23.986;2023-04-03T13:57:22;20.33;;;16.33;;
2213;SDS011;1113;42.018;23.986;2023-04-03T13:59:50;21.40;;;14.00;;
2213;SDS011;1113;42.018;23.986;2023-04-03T14:02:18;17.20;;;14.60;;
2213;SDS011;1113;42.018;23.986;2023-04-03T14:04:47;14.60;;;12.10;;
2213;SDS011;1113;42.018;23.986;2023-04-03T14:07:14;16.70;;;14.70;;
2213;SDS011;1113;42.018;23.986;2023-04-03T14:09:42;14.47;;;11.60;;
2213;SDS011;1113;42.018;23.986;2023-04-03T14:12:24;16.67;;;13.07;;
2213;SDS011;1113;42.018;23.986;2023-04-03T14:14:53;17.57;;;14.63;;
2213;SDS011;1113;42.018;23.986;2023-04-03T14:17:22;18.70;;;14.90;;
2213;SDS011;1113;42.018;23.986;2023-04-03T14:19:49;14.30;;;10.87;;
2213;SDS011;1113;42.018;23.986;2023-04-03T14:22:17;12.23;;;10.03;;
2213;SDS011;1113;42.018;23.986;2023-04-03T14:24:44;12.17;;;9.93;;
2213;SDS011;1113;42.018;23.986;2023-04-03T14:27:14;13.10;;;11.53;;
2213;SDS011;1113;42.018;23.986;2023-04-03T14:29:43;13.17;;;11.07;;
2213;SDS011;1113;42.018;23.986;2023-04-03T14:32:12;13.37;;;10.97;;
2213;SDS011;1113;42.018;23.986;2023-04-03T14:34:40;13.03;;;11.07;;
2213;SDS011;1113;42.018;23.986;2023-04-03T14:37:09;12.80;;;11.20;;
2213;SDS011;1113;42.018;23.986;2023-04-03T14:39:36;16.83;;;12.73;;
2213;SDS011;1113;42.018;23.986;2023-04-03T14:42:02;20.50;;;12.80;;
2213;SDS011;1113;42.018;23.986;2023-04-03T14:44:29;15.83;;;11.83;;
2213;SDS011;1113;42.018;23.986;2023-04-03T14:46:56;13.60;;;10.80;;
2213;SDS011;1113;42.018;23.986;2023-04-03T14:49:25;15.97;;;10.90;;
2213;SDS011;1113;42.018;23.986;2023-04-03T14:51:53;14.63;;;11.70;;
2213;SDS011;1113;42.018;23.986;2023-04-03T14:54:21;15.87;;;12.73;;
2213;SDS011;1113;42.018;23.986;2023-04-03T14:56:50;17.30;;;12.60;;
2213;SDS011;1113;42.018;23.986;2023-04-03T14:59:17;17.60;;;12.17;;
2213;SDS011;1113;42.018;23.986;2023-04-03T15:01:45;15.10;;;12.10;;